JTR weather

Santorini Airport
Santorini Island, Cyclades, Greece

Public forecast

Using degrees Celsius for public forecast. Weather courtesy of forecast.io.

METAR (pilot weather report)

Retrieved 2019/06/18 00:20 UTC (20 minutes ago):

LGSR 180020Z 29012KT 9999 FEW025 24/16 Q1010

TAF (pilot weather forecast)

Forecast is more than 12 hours old.

Retrieved 2019/06/17 00:12 UTC (1 day ago):

TAF LGSR 172300Z 1800/1824 32015KT 9999 FEW025 TEMPO 1800/1815 32015G25KT